createdAt,value
2023-01-20T00:01:11.246Z,148658.50
2023-01-20T00:03:41.925Z,148664.81
2023-01-20T00:06:08.599Z,148662.28
2023-01-20T00:08:34.713Z,148666.03
2023-01-20T00:11:09.021Z,148663.53
2023-01-20T00:13:35.933Z,148676.06
2023-01-20T00:16:03.347Z,148662.28
2023-01-20T00:18:29.355Z,148657.25
2023-01-20T00:20:55.418Z,148654.72
2023-01-20T00:23:21.486Z,148647.22
2023-01-20T00:25:47.344Z,148647.22
2023-01-20T00:28:13.217Z,148663.53
2023-01-20T00:30:39.063Z,148589.47
2023-01-20T00:33:05.014Z,148592.03
2023-01-20T00:35:30.820Z,148586.97
2023-01-20T00:37:56.588Z,148581.97
2023-01-20T00:40:22.388Z,148610.84
2023-01-20T00:42:48.221Z,148595.78
2023-01-20T00:45:14.326Z,148597.03
2023-01-20T00:47:40.195Z,148607.03
2023-01-20T00:50:06.343Z,148570.66
2023-01-20T00:52:32.254Z,148573.22
2023-01-20T00:54:57.996Z,148585.72
2023-01-20T00:57:23.836Z,148628.41
2023-01-20T00:59:49.635Z,148609.59
2023-01-20T01:02:15.479Z,148604.53
2023-01-20T01:04:41.437Z,148609.59
2023-01-20T01:07:07.200Z,148623.34
2023-01-20T01:09:33.093Z,148625.84
2023-01-20T01:11:58.900Z,148653.50
2023-01-20T01:14:24.865Z,148639.66
2023-01-20T01:16:50.793Z,148620.84
2023-01-20T01:19:19.617Z,148625.84
2023-01-20T01:21:45.474Z,148667.31
2023-01-20T01:24:11.316Z,148627.16
2023-01-20T01:26:37.103Z,148613.34
2023-01-20T01:29:02.878Z,148604.53
2023-01-20T01:31:28.770Z,148598.28
2023-01-20T01:33:54.589Z,148604.53
2023-01-20T01:36:20.384Z,148613.34
2023-01-20T01:38:46.270Z,148640.94
2023-01-20T01:41:25.274Z,148629.66
2023-01-20T01:44:05.488Z,148604.53
2023-01-20T01:46:31.836Z,148604.53
2023-01-20T01:49:02.304Z,148615.84
2023-01-20T01:51:34.706Z,148617.09
2023-01-20T01:54:14.628Z,148607.03
2023-01-20T01:56:42.771Z,148619.59
2023-01-20T01:59:09.126Z,148628.41
2023-01-20T02:01:37.785Z,148600.78
2023-01-20T02:04:15.207Z,148613.34
2023-01-20T02:06:45.037Z,148620.84
2023-01-20T02:09:11.672Z,148612.09
2023-01-20T02:11:43.126Z,148610.84
2023-01-20T02:14:09.066Z,148652.22
2023-01-20T02:17:07.665Z,148581.97
2023-01-20T02:19:54.025Z,148594.53
2023-01-20T02:22:39.043Z,148599.53
2023-01-20T02:25:42.339Z,148604.53
2023-01-20T02:28:53.217Z,148578.22
2023-01-20T02:31:36.270Z,148590.72
2023-01-20T02:34:16.993Z,148617.09
2023-01-20T02:36:58.808Z,148643.44
2023-01-20T02:40:00.201Z,148609.59
2023-01-20T02:42:41.853Z,148617.09
2023-01-20T02:45:31.501Z,148629.66
2023-01-20T02:48:30.801Z,148642.19
2023-01-20T02:51:09.515Z,148625.84
2023-01-20T02:53:48.777Z,148620.84
2023-01-20T02:56:16.123Z,148622.09
2023-01-20T02:58:48.494Z,148633.41
2023-01-20T03:01:24.769Z,148638.41
2023-01-20T03:03:53.400Z,148649.72
2023-01-20T03:06:23.741Z,148663.53
2023-01-20T03:08:52.310Z,148648.47
2023-01-20T03:11:18.853Z,148672.31
2023-01-20T03:14:01.412Z,148668.56
2023-01-20T03:16:28.348Z,148633.41
2023-01-20T03:18:54.692Z,148628.41
2023-01-20T03:21:21.033Z,148609.59
2023-01-20T03:23:56.530Z,148608.28
2023-01-20T03:26:23.253Z,148588.22
2023-01-20T03:28:49.493Z,148623.34
2023-01-20T03:31:21.216Z,148599.53
2023-01-20T03:33:49.581Z,148588.22
2023-01-20T03:36:16.305Z,148566.91
2023-01-20T03:38:44.064Z,148543.09
2023-01-20T03:41:40.216Z,148565.66
2023-01-20T03:44:16.023Z,148565.66
2023-01-20T03:47:08.815Z,148571.91
2023-01-20T03:49:49.902Z,148581.97
2023-01-20T03:52:47.509Z,148571.91
2023-01-20T03:55:24.010Z,148592.03
2023-01-20T03:57:58.075Z,148600.78
2023-01-20T04:00:27.130Z,148594.53
2023-01-20T04:02:58.694Z,148610.84
2023-01-20T04:05:26.277Z,148599.53
2023-01-20T04:07:56.768Z,148570.66
2023-01-20T04:10:24.267Z,148573.22
2023-01-20T04:12:50.199Z,148580.72
2023-01-20T04:15:17.382Z,148578.22
2023-01-20T04:17:44.652Z,148545.59
2023-01-20T04:20:14.469Z,148516.72
2023-01-20T04:23:00.538Z,148497.91
2023-01-20T04:25:29.236Z,148538.09
2023-01-20T04:27:55.042Z,148502.97
2023-01-20T04:30:21.059Z,148515.47
2023-01-20T04:32:46.867Z,148538.09
2023-01-20T04:35:14.682Z,148540.59
2023-01-20T04:37:41.299Z,148538.09
2023-01-20T04:40:08.200Z,148484.16
2023-01-20T04:42:34.082Z,148486.66
2023-01-20T04:45:00.275Z,148514.22
2023-01-20T04:47:29.703Z,148446.50
2023-01-20T04:49:55.509Z,148457.78
2023-01-20T04:52:21.377Z,148466.59
2023-01-20T04:54:47.203Z,148470.34
2023-01-20T04:57:13.058Z,148506.72
2023-01-20T04:59:38.872Z,148516.72
2023-01-20T05:02:04.772Z,148525.53
2023-01-20T05:04:30.558Z,148521.78
2023-01-20T05:06:56.374Z,148497.91
2023-01-20T05:09:22.200Z,148533.03
2023-01-20T05:11:48.010Z,148555.66
2023-01-20T05:14:14.118Z,148507.97
2023-01-20T05:16:39.957Z,148544.34
2023-01-20T05:19:05.848Z,148530.53
2023-01-20T05:21:32.396Z,148501.72
2023-01-20T05:23:58.571Z,148531.78
2023-01-20T05:26:25.463Z,148531.78
2023-01-20T05:28:51.889Z,148514.22
2023-01-20T05:31:17.927Z,148500.41
2023-01-20T05:33:43.761Z,148471.59
2023-01-20T05:36:10.917Z,148505.47
2023-01-20T05:38:36.843Z,148475.34
2023-01-20T05:41:08.012Z,148520.53
2023-01-20T05:43:34.112Z,148523.03
2023-01-20T05:46:00.102Z,148545.59
2023-01-20T05:48:26.092Z,148564.41
2023-01-20T05:50:51.903Z,148569.41
2023-01-20T05:53:18.675Z,148568.16
2023-01-20T05:55:44.849Z,148543.09
2023-01-20T05:58:11.614Z,148481.59
2023-01-20T06:00:37.792Z,148494.16
2023-01-20T06:03:04.004Z,148524.28
2023-01-20T06:05:29.905Z,148477.84
2023-01-20T06:07:56.542Z,148514.22
2023-01-20T06:10:27.384Z,148511.72
2023-01-20T06:12:54.560Z,148512.97
2023-01-20T06:15:24.628Z,148550.59
2023-01-20T06:17:53.984Z,148534.28
2023-01-20T06:20:19.888Z,148548.09
2023-01-20T06:22:46.015Z,148554.34
2023-01-20T06:25:11.861Z,148566.91
2023-01-20T06:27:37.657Z,148539.34
2023-01-20T06:30:05.525Z,148544.34
2023-01-20T06:32:31.339Z,148571.91
2023-01-20T06:34:57.126Z,148597.03
2023-01-20T06:37:22.900Z,148597.03
2023-01-20T06:39:48.687Z,148561.91
2023-01-20T06:42:14.598Z,148538.09
2023-01-20T06:44:40.379Z,148555.66
2023-01-20T06:47:06.189Z,148575.72
2023-01-20T06:49:32.864Z,148558.16
2023-01-20T06:51:59.341Z,148590.72
2023-01-20T06:54:26.443Z,148588.22
2023-01-20T06:56:52.383Z,148589.47
2023-01-20T06:59:18.242Z,148604.53
2023-01-20T07:01:44.546Z,148607.03
2023-01-20T07:04:14.211Z,148551.84
2023-01-20T07:06:41.451Z,148528.03
2023-01-20T07:09:10.088Z,148526.78
2023-01-20T07:11:36.447Z,148490.41
2023-01-20T07:14:05.968Z,148504.22
2023-01-20T07:16:32.717Z,148494.16
2023-01-20T07:18:58.584Z,148480.34
2023-01-20T07:21:26.552Z,148479.09
2023-01-20T07:23:52.995Z,148476.59
2023-01-20T07:26:22.052Z,148442.72
2023-01-20T07:28:48.464Z,148496.66
2023-01-20T07:31:21.618Z,148450.28
2023-01-20T07:33:48.217Z,148436.47
2023-01-20T07:36:14.939Z,148436.47
2023-01-20T07:38:41.164Z,148435.22
2023-01-20T07:41:14.929Z,148459.03
2023-01-20T07:43:42.196Z,148431.47
2023-01-20T07:46:08.270Z,148431.47
2023-01-20T07:48:34.390Z,148461.53
2023-01-20T07:51:04.560Z,148471.59
2023-01-20T07:53:32.308Z,148466.59
2023-01-20T07:56:03.561Z,148471.59
2023-01-20T07:58:29.387Z,148487.91
2023-01-20T08:00:55.353Z,148487.91
2023-01-20T08:03:22.210Z,148489.16
2023-01-20T08:05:48.014Z,148459.03
2023-01-20T08:08:13.849Z,148452.78
2023-01-20T08:10:39.742Z,148437.72
2023-01-20T08:13:05.549Z,148444.00
2023-01-20T08:15:31.862Z,148430.19
2023-01-20T08:18:00.793Z,148462.78
2023-01-20T08:20:26.743Z,148476.59
2023-01-20T08:22:52.607Z,148457.78
2023-01-20T08:25:18.716Z,148496.66
2023-01-20T08:27:47.388Z,148487.91
2023-01-20T08:30:13.355Z,148521.78
2023-01-20T08:32:40.288Z,148490.41
2023-01-20T08:35:06.273Z,148531.78
2023-01-20T08:37:34.716Z,148445.25
2023-01-20T08:40:00.552Z,148444.00
2023-01-20T08:42:26.468Z,148440.25
2023-01-20T08:44:52.839Z,148471.59
2023-01-20T08:47:18.643Z,148479.09
2023-01-20T08:49:44.556Z,148475.34
2023-01-20T08:52:12.222Z,148487.91
2023-01-20T08:54:38.142Z,148524.28
2023-01-20T08:57:03.983Z,148545.59
2023-01-20T08:59:29.841Z,148540.59
2023-01-20T09:01:55.650Z,148539.34
2023-01-20T09:04:21.476Z,148507.97
2023-01-20T09:06:49.617Z,148544.34
2023-01-20T09:09:17.728Z,148563.16
2023-01-20T09:11:49.707Z,148526.78
2023-01-20T09:14:24.777Z,148535.53
2023-01-20T09:16:50.836Z,148548.09
2023-01-20T09:19:17.270Z,148515.47
2023-01-20T09:21:43.669Z,148554.34
2023-01-20T09:24:10.049Z,148525.53
2023-01-20T09:26:40.887Z,148534.28
2023-01-20T09:29:13.608Z,148531.78
2023-01-20T09:31:52.827Z,148515.47
2023-01-20T09:34:23.735Z,148555.66
2023-01-20T09:36:54.462Z,148592.03
2023-01-20T09:39:39.691Z,148554.34
2023-01-20T09:42:35.877Z,148536.78
2023-01-20T09:45:25.506Z,148530.53
2023-01-20T09:48:03.007Z,148570.66
2023-01-20T09:51:11.495Z,148546.84
2023-01-20T09:54:09.088Z,148543.09
2023-01-20T09:56:40.546Z,148536.78
2023-01-20T09:59:12.619Z,148540.59
2023-01-20T10:01:47.085Z,148545.59
2023-01-20T10:04:32.138Z,148566.91
2023-01-20T10:07:23.452Z,148583.22
2023-01-20T10:10:04.954Z,148653.50
2023-01-20T10:12:37.049Z,148658.50
2023-01-20T10:15:24.589Z,148619.59
2023-01-20T10:17:52.336Z,148607.03
2023-01-20T10:20:28.067Z,148657.25
2023-01-20T10:22:56.838Z,148699.94
2023-01-20T10:25:43.519Z,148662.28
2023-01-20T10:28:21.923Z,148662.28
2023-01-20T10:30:47.834Z,148691.13
2023-01-20T10:33:15.476Z,148836.75
2023-01-20T10:35:46.285Z,149108.06
2023-01-20T10:38:37.856Z,149565.91
2023-01-20T10:41:24.154Z,150219.84
2023-01-20T10:43:50.024Z,150988.94
2023-01-20T10:46:15.863Z,151584.97
2023-01-20T10:48:49.334Z,152015.88
2023-01-20T10:51:50.197Z,151742.06
2023-01-20T10:54:35.913Z,151083.78
2023-01-20T10:57:04.132Z,150550.50
2023-01-20T10:59:45.171Z,150200.88
2023-01-20T11:02:17.190Z,150055.88
2023-01-20T11:04:45.096Z,149769.84
2023-01-20T11:07:18.334Z,149744.69
2023-01-20T11:09:46.733Z,149582.25
2023-01-20T11:12:16.822Z,149528.13
2023-01-20T11:14:44.455Z,149338.16
2023-01-20T11:17:19.703Z,149335.63
2023-01-20T11:19:50.440Z,149364.59
2023-01-20T11:22:22.452Z,149270.28
2023-01-20T11:24:54.278Z,149232.50
2023-01-20T11:27:23.813Z,149099.28
2023-01-20T11:29:55.680Z,149074.19
2023-01-20T11:32:30.805Z,148984.97
2023-01-20T11:34:57.291Z,148954.81
2023-01-20T11:37:26.248Z,148924.66
2023-01-20T11:39:54.850Z,148912.06
2023-01-20T11:42:23.221Z,148915.88
2023-01-20T11:44:54.463Z,148840.50
2023-01-20T11:47:24.632Z,148918.38
2023-01-20T11:50:24.592Z,148844.31
2023-01-20T11:52:50.519Z,148947.25
2023-01-20T11:55:20.727Z,148979.91
2023-01-20T11:57:52.293Z,148912.06
2023-01-20T12:00:18.101Z,148888.22
2023-01-20T12:02:55.701Z,148835.50
2023-01-20T12:05:41.171Z,148812.91
2023-01-20T12:08:18.241Z,148772.72
2023-01-20T12:10:45.371Z,148747.59
2023-01-20T12:14:16.372Z,148758.91
2023-01-20T12:16:44.655Z,148781.50
2023-01-20T12:19:17.421Z,148742.59
2023-01-20T12:21:48.422Z,148796.56
2023-01-20T12:25:09.506Z,148800.31
2023-01-20T12:27:57.069Z,148772.72
2023-01-20T12:30:46.965Z,148782.75
2023-01-20T12:33:25.114Z,148814.16
2023-01-20T12:35:53.700Z,148850.56
2023-01-20T12:38:23.782Z,148959.81
2023-01-20T12:40:54.652Z,149518.06
2023-01-20T12:43:26.286Z,149863.09
2023-01-20T12:46:13.888Z,150074.78
2023-01-20T12:48:45.652Z,150481.06
2023-01-20T12:51:34.824Z,150549.25
2023-01-20T12:54:15.464Z,150081.13
2023-01-20T12:56:59.708Z,150060.94
2023-01-20T12:59:40.432Z,149924.81
2023-01-20T13:02:11.970Z,149790.03
2023-01-20T13:04:58.872Z,149711.94
2023-01-20T13:07:47.970Z,149984.03
2023-01-20T13:10:38.481Z,149818.97
2023-01-20T13:13:17.140Z,149802.59
2023-01-20T13:16:12.904Z,149725.78
2023-01-20T13:19:06.762Z,149450.16
2023-01-20T13:21:34.270Z,149270.28
2023-01-20T13:24:02.239Z,149245.09
2023-01-20T13:26:32.309Z,149352.00
2023-01-20T13:28:59.811Z,149272.78
2023-01-20T13:31:43.278Z,149268.97
2023-01-20T13:34:21.333Z,149321.78
2023-01-20T13:37:06.653Z,149149.56
2023-01-20T13:39:45.162Z,149036.44
2023-01-20T13:42:35.583Z,149015.09
2023-01-20T13:45:13.763Z,148927.16
2023-01-20T13:47:53.424Z,148956.06
2023-01-20T13:50:35.887Z,148912.06
2023-01-20T13:53:01.692Z,148900.81
2023-01-20T13:55:40.748Z,148952.31
2023-01-20T13:58:13.482Z,148912.06
2023-01-20T14:00:39.378Z,148888.22
2023-01-20T14:03:27.412Z,148849.31
2023-01-20T14:05:56.413Z,148825.47
2023-01-20T14:08:23.937Z,148805.38
2023-01-20T14:10:49.881Z,148782.75
2023-01-20T14:13:23.822Z,148785.25
2023-01-20T14:15:54.907Z,148750.09
2023-01-20T14:18:24.371Z,148765.19
2023-01-20T14:21:18.658Z,148812.91
2023-01-20T14:23:47.643Z,148753.91
2023-01-20T14:26:21.132Z,148760.16
2023-01-20T14:28:57.715Z,148762.66
2023-01-20T14:31:34.511Z,148758.91
2023-01-20T14:34:17.773Z,148762.66
2023-01-20T14:36:44.195Z,148757.66
2023-01-20T14:39:18.497Z,148747.59
2023-01-20T14:41:47.629Z,148735.09
2023-01-20T14:44:22.357Z,148716.25
2023-01-20T14:46:53.327Z,148717.50
2023-01-20T14:49:21.499Z,148716.25
2023-01-20T14:51:49.911Z,148711.19
2023-01-20T14:54:45.045Z,148703.69
2023-01-20T14:57:33.443Z,148731.28
2023-01-20T15:00:14.840Z,148692.38
2023-01-20T15:02:57.945Z,148687.38
2023-01-20T15:05:36.251Z,148701.19
2023-01-20T15:08:11.340Z,148671.06
2023-01-20T15:10:41.042Z,148697.38
2023-01-20T15:13:26.976Z,148696.13
2023-01-20T15:16:13.355Z,148692.38
2023-01-20T15:18:39.575Z,148692.38
2023-01-20T15:21:27.008Z,148642.19
2023-01-20T15:23:53.392Z,148614.59
2023-01-20T15:26:30.120Z,148579.47
2023-01-20T15:28:57.555Z,148597.03
2023-01-20T15:31:23.935Z,148578.22
2023-01-20T15:33:49.751Z,148570.66
2023-01-20T15:36:36.337Z,148583.22
2023-01-20T15:39:02.639Z,148549.34
2023-01-20T15:41:28.553Z,148593.28
2023-01-20T15:43:54.488Z,148605.78
2023-01-20T15:46:20.422Z,148609.59
2023-01-20T15:48:46.286Z,148599.53
2023-01-20T15:51:15.307Z,148580.72
2023-01-20T15:53:41.314Z,148584.47
2023-01-20T15:56:34.565Z,148610.84
2023-01-20T15:59:00.974Z,148571.91
2023-01-20T16:01:28.499Z,148549.34
2023-01-20T16:03:57.944Z,148569.41
2023-01-20T16:06:30.272Z,148605.78
2023-01-20T16:08:56.420Z,148588.22
2023-01-20T16:11:22.313Z,148559.41
2023-01-20T16:13:48.251Z,148544.34
2023-01-20T16:16:18.539Z,148561.91
2023-01-20T16:18:45.639Z,148560.66
2023-01-20T16:21:13.372Z,148551.84
2023-01-20T16:23:39.788Z,148531.78
2023-01-20T16:26:24.572Z,148531.78
2023-01-20T16:28:51.943Z,148523.03
2023-01-20T16:31:18.597Z,148521.78
2023-01-20T16:33:44.757Z,148502.97
2023-01-20T16:36:16.441Z,148520.53
2023-01-20T16:38:43.122Z,148512.97
2023-01-20T16:41:23.442Z,148515.47
2023-01-20T16:43:50.761Z,148500.41
2023-01-20T16:46:22.506Z,148486.66
2023-01-20T16:48:48.527Z,148466.59
2023-01-20T16:51:17.190Z,148469.09
2023-01-20T16:53:43.324Z,148496.66
2023-01-20T16:56:25.585Z,148491.66
2023-01-20T16:58:53.233Z,148489.16
2023-01-20T17:01:22.896Z,148465.28
2023-01-20T17:03:50.672Z,148451.53
2023-01-20T17:06:19.912Z,148459.03
2023-01-20T17:08:48.008Z,148475.34
2023-01-20T17:11:22.450Z,148456.53
2023-01-20T17:13:48.769Z,148474.09
2023-01-20T17:16:15.145Z,148477.84
2023-01-20T17:18:44.459Z,148449.03
2023-01-20T17:21:11.611Z,148433.97
2023-01-20T17:23:37.619Z,148415.19
2023-01-20T17:26:05.221Z,148440.25
2023-01-20T17:28:31.387Z,148400.13
2023-01-20T17:31:05.541Z,148435.22
2023-01-20T17:33:31.803Z,148425.19
2023-01-20T17:36:00.184Z,148408.88
2023-01-20T17:38:28.000Z,148421.44
2023-01-20T17:40:54.410Z,148405.13
2023-01-20T17:43:20.690Z,148395.13
2023-01-20T17:45:46.559Z,148368.78
2023-01-20T17:48:12.345Z,148307.38
2023-01-20T17:50:38.374Z,148323.66
2023-01-20T17:53:04.278Z,148346.22
2023-01-20T17:55:30.102Z,148329.91
2023-01-20T17:57:56.114Z,148343.72
2023-01-20T18:00:22.083Z,148336.16
2023-01-20T18:02:47.932Z,148371.28
2023-01-20T18:05:13.865Z,148301.06
2023-01-20T18:07:39.765Z,148326.16
2023-01-20T18:10:05.714Z,148311.13
2023-01-20T18:12:31.573Z,148314.88
2023-01-20T18:14:57.996Z,148318.63
2023-01-20T18:17:24.429Z,148294.81
2023-01-20T18:19:50.336Z,148308.63
2023-01-20T18:22:16.956Z,148328.66
2023-01-20T18:24:43.111Z,148327.41
2023-01-20T18:27:09.122Z,148321.13
2023-01-20T18:29:35.452Z,148311.13
2023-01-20T18:32:02.063Z,148317.38
2023-01-20T18:34:27.926Z,148316.13
2023-01-20T18:36:54.694Z,148304.81
2023-01-20T18:39:22.945Z,148326.16
2023-01-20T18:41:50.132Z,148321.13
2023-01-20T18:44:16.504Z,148316.13
2023-01-20T18:46:42.464Z,148313.63
2023-01-20T18:49:12.121Z,148252.22
2023-01-20T18:51:38.001Z,148238.44
2023-01-20T18:54:06.951Z,148215.84
2023-01-20T18:56:33.699Z,148214.59
2023-01-20T18:59:01.567Z,148233.38
2023-01-20T19:01:32.962Z,148264.72
2023-01-20T19:04:03.589Z,148239.69
2023-01-20T19:06:33.602Z,148277.28
2023-01-20T19:09:00.018Z,148296.06
2023-01-20T19:11:31.697Z,148279.78
2023-01-20T19:13:58.736Z,148303.56
2023-01-20T19:16:27.301Z,148326.16
2023-01-20T19:18:55.946Z,148308.63
2023-01-20T19:21:24.172Z,148283.53
2023-01-20T19:23:52.134Z,148278.53
2023-01-20T19:26:19.000Z,148267.22
2023-01-20T19:29:01.842Z,148284.78
2023-01-20T19:31:30.168Z,148269.72
2023-01-20T19:33:56.464Z,148273.53
2023-01-20T19:36:23.211Z,148253.47
2023-01-20T19:38:51.325Z,148220.91
2023-01-20T19:41:26.999Z,148250.94
2023-01-20T19:43:56.885Z,148235.94
2023-01-20T19:46:25.424Z,148210.84
2023-01-20T19:48:53.437Z,148213.34
2023-01-20T19:51:20.035Z,148189.56
2023-01-20T19:53:46.675Z,148192.06
2023-01-20T19:56:14.978Z,148204.59
2023-01-20T19:58:42.031Z,148223.41
2023-01-20T20:01:17.468Z,148204.59
2023-01-20T20:03:44.222Z,148208.34
2023-01-20T20:06:28.297Z,148188.31
2023-01-20T20:09:06.089Z,148163.28
2023-01-20T20:11:33.067Z,148158.22
2023-01-20T20:14:01.790Z,148143.19
2023-01-20T20:16:30.547Z,148138.19
2023-01-20T20:18:57.456Z,148138.19
2023-01-20T20:21:24.756Z,148133.19
2023-01-20T20:23:53.037Z,148141.94
2023-01-20T20:26:20.569Z,148170.78
2023-01-20T20:28:46.931Z,148153.22
2023-01-20T20:31:13.428Z,148125.66
2023-01-20T20:33:39.591Z,148141.94
2023-01-20T20:36:07.116Z,148141.94
2023-01-20T20:38:36.298Z,148139.44
2023-01-20T20:41:07.498Z,148104.38
2023-01-20T20:43:34.857Z,148118.16
2023-01-20T20:46:02.541Z,148119.41
2023-01-20T20:48:29.447Z,148116.91
2023-01-20T20:50:55.782Z,148090.56
2023-01-20T20:53:22.116Z,148101.88
2023-01-20T20:55:48.457Z,148098.13
2023-01-20T20:58:14.671Z,148100.63
2023-01-20T21:00:40.773Z,148113.16
2023-01-20T21:03:07.087Z,148095.63
2023-01-20T21:05:33.866Z,148104.38
2023-01-20T21:08:00.369Z,148100.63
2023-01-20T21:10:26.710Z,148058.06
2023-01-20T21:12:52.781Z,148032.97
2023-01-20T21:15:19.120Z,148103.13
2023-01-20T21:17:45.201Z,148078.09
2023-01-20T21:20:11.717Z,148078.09
2023-01-20T21:22:38.343Z,148091.88
2023-01-20T21:25:05.538Z,148050.50
2023-01-20T21:27:32.501Z,148080.59
2023-01-20T21:29:58.370Z,148064.31
2023-01-20T21:32:24.475Z,148051.75
2023-01-20T21:34:50.308Z,148070.56
2023-01-20T21:37:18.313Z,148053.00
2023-01-20T21:39:44.266Z,148055.50
2023-01-20T21:42:10.176Z,148064.31
2023-01-20T21:44:36.015Z,148080.59
2023-01-20T21:47:04.139Z,148063.06
2023-01-20T21:49:48.705Z,148084.34
2023-01-20T21:52:35.523Z,148076.84
2023-01-20T21:55:02.389Z,148066.81
2023-01-20T21:57:28.562Z,148066.81
2023-01-20T21:59:55.267Z,148054.25
2023-01-20T22:02:27.324Z,148061.81
2023-01-20T22:04:53.406Z,148053.00
2023-01-20T22:07:19.629Z,148023.00
2023-01-20T22:09:45.512Z,148032.97
2023-01-20T22:12:12.099Z,148073.03
2023-01-20T22:14:38.449Z,148032.97
2023-01-20T22:17:05.872Z,148014.22
2023-01-20T22:19:31.786Z,148036.72
2023-01-20T22:21:59.375Z,148024.25
2023-01-20T22:24:25.697Z,147995.44
2023-01-20T22:26:51.706Z,147980.41
2023-01-20T22:29:18.328Z,147984.13
2023-01-20T22:31:45.117Z,147976.66
2023-01-20T22:34:11.318Z,148010.47
2023-01-20T22:36:37.669Z,147990.44
2023-01-20T22:39:05.908Z,147980.41
2023-01-20T22:41:31.875Z,147957.88
2023-01-20T22:43:57.852Z,147992.94
2023-01-20T22:46:25.651Z,147969.16
2023-01-20T22:48:52.008Z,147982.91
2023-01-20T22:51:21.333Z,147987.94
2023-01-20T22:53:47.274Z,147967.91
2023-01-20T22:56:15.870Z,147947.84
2023-01-20T22:58:42.879Z,147961.63
2023-01-20T23:01:19.429Z,147902.81
2023-01-20T23:03:45.658Z,147916.59
2023-01-20T23:06:13.340Z,147929.06
2023-01-20T23:08:39.885Z,147935.34
2023-01-20T23:11:13.888Z,147929.06
2023-01-20T23:13:40.354Z,147941.59
2023-01-20T23:16:10.245Z,147907.78
2023-01-20T23:18:36.147Z,147909.03
2023-01-20T23:21:02.077Z,147876.50
2023-01-20T23:23:28.214Z,147875.25
2023-01-20T23:26:06.008Z,147887.78
2023-01-20T23:28:32.778Z,147900.31
2023-01-20T23:31:03.643Z,147874.00
2023-01-20T23:33:30.296Z,147887.78
2023-01-20T23:36:05.854Z,147877.75
2023-01-20T23:38:31.522Z,147897.81
2023-01-20T23:40:57.392Z,147884.03
2023-01-20T23:43:23.607Z,147899.06
2023-01-20T23:45:49.499Z,147895.25
2023-01-20T23:48:15.515Z,147900.31
2023-01-20T23:50:41.329Z,147901.56
2023-01-20T23:53:07.107Z,147891.53
2023-01-20T23:55:32.946Z,147886.53
2023-01-20T23:57:58.774Z,147926.56
